Time;durP1;ratioP1;P1;durP2;ratioP2;P2;SDS_P1;SDS_P2;PMS_P1;PMS_P2;Temp;Humidity;BMP_temperature;BMP_pressure;BME280_temperature;BME280_humidity;BME280_pressure;Samples;Min_cycle;Max_cycle;Signal;HPM_P1;HPM_P2
2022/12/12 00:00:29;;;;;;;18.70;16.70;;;;;20.40;99913.00;;;;2078168;28;20213;-52
2022/12/12 00:01:40;;;;;;;18.90;16.80;;;;;20.30;99915.00;;;;2062708;28;20215;-53
2022/12/12 00:02:40;;;;;;;20.27;17.60;;;;;20.30;99929.00;;;;2077374;28;20237;-52
2022/12/12 00:03:41;;;;;;;18.67;16.77;;;;;20.30;99921.00;;;;2077103;28;20721;-52
2022/12/12 00:04:41;;;;;;;19.70;16.77;;;;;20.30;99917.00;;;;2075085;28;20694;-53
2022/12/12 00:05:41;;;;;;;19.67;16.43;;;;;20.30;99919.00;;;;2079101;28;20205;-53
2022/12/12 00:06:42;;;;;;;20.03;17.03;;;;;20.30;99912.00;;;;2076095;28;20310;-54
2022/12/12 00:07:42;;;;;;;18.47;16.30;;;;;20.30;99920.00;;;;2077590;28;20210;-53
2022/12/12 00:08:42;;;;;;;18.40;15.83;;;;;20.30;99919.00;;;;2074927;28;20209;-54
2022/12/12 00:09:43;;;;;;;19.50;16.50;;;;;20.30;99914.00;;;;2070813;28;20209;-52
2022/12/12 00:10:43;;;;;;;18.87;16.83;;;;;20.30;99919.00;;;;2076452;28;20843;-52
2022/12/12 00:11:43;;;;;;;18.60;16.53;;;;;20.30;99920.00;;;;2078889;28;20209;-54
2022/12/12 00:12:44;;;;;;;18.40;16.03;;;;;20.20;99922.00;;;;2074793;28;20234;-53
2022/12/12 00:13:44;;;;;;;18.67;15.93;;;;;20.30;99920.00;;;;2075638;28;20295;-53
2022/12/12 00:14:44;;;;;;;18.27;15.83;;;;;20.30;99923.00;;;;2078994;28;20213;-53
2022/12/12 00:15:45;;;;;;;18.63;15.70;;;;;20.30;99928.00;;;;2072463;28;20690;-54
2022/12/12 00:16:45;;;;;;;17.57;15.77;;;;;20.30;99921.00;;;;2074520;28;20215;-52
2022/12/12 00:17:45;;;;;;;21.43;17.33;;;;;20.30;99922.00;;;;2070557;28;20224;-52
2022/12/12 00:18:46;;;;;;;18.93;15.70;;;;;20.20;99924.00;;;;2075396;28;20217;-53
2022/12/12 00:19:46;;;;;;;17.60;15.67;;;;;20.20;99917.00;;;;2075457;28;20202;-53
2022/12/12 00:20:53;;;;;;;18.10;16.20;;;;;20.20;99933.00;;;;2073296;28;20283;-54
2022/12/12 00:21:53;;;;;;;17.65;15.80;;;;;20.20;99922.00;;;;2068508;28;20207;-53
2022/12/12 00:22:54;;;;;;;17.73;15.80;;;;;20.20;99927.00;;;;2079122;28;20217;-51
2022/12/12 00:23:54;;;;;;;19.37;15.77;;;;;20.20;99928.00;;;;2075081;28;20298;-53
2022/12/12 00:24:55;;;;;;;16.90;15.20;;;;;20.20;99925.00;;;;2075158;28;20263;-54
2022/12/12 00:25:57;;;;;;;17.33;15.47;;;;;20.20;99933.00;;;;2078778;28;20210;-54
2022/12/12 00:26:57;;;;;;;17.17;15.38;;;;;20.20;99924.00;;;;2071837;28;20328;-52
2022/12/12 00:27:59;;;;;;;17.00;15.00;;;;;20.20;99924.00;;;;2072829;28;21054;-53
2022/12/12 00:28:59;;;;;;;17.27;15.10;;;;;20.20;99919.00;;;;2078042;28;20220;-54
2022/12/12 00:30:00;;;;;;;17.67;15.80;;;;;20.20;99917.00;;;;2072361;28;20293;-54
2022/12/12 00:31:00;;;;;;;18.10;15.90;;;;;20.20;99924.00;;;;2072915;28;20281;-54
2022/12/12 00:32:00;;;;;;;18.33;15.67;;;;;20.20;99924.00;;;;2070565;28;20214;-52
2022/12/12 00:33:01;;;;;;;16.47;14.47;;;;;20.20;99928.00;;;;2078037;28;20297;-51
2022/12/12 00:34:01;;;;;;;18.27;15.90;;;;;20.20;99929.00;;;;2075536;28;20221;-54
2022/12/12 00:35:01;;;;;;;16.63;14.93;;;;;20.10;99924.00;;;;2078228;28;20214;-53
2022/12/12 00:36:02;;;;;;;17.17;15.33;;;;;20.20;99923.00;;;;2078098;28;20702;-54
2022/12/12 00:37:02;;;;;;;16.53;14.63;;;;;20.10;99917.00;;;;2074992;28;20214;-54
2022/12/12 00:38:02;;;;;;;17.07;15.27;;;;;20.10;99920.00;;;;2070932;28;20214;-54
2022/12/12 00:39:03;;;;;;;16.53;14.53;;;;;20.10;99921.00;;;;2076099;28;20212;-52
2022/12/12 00:40:03;;;;;;;15.93;14.23;;;;;20.10;99923.00;;;;2078909;28;20232;-53
2022/12/12 00:41:04;;;;;;;16.97;14.73;;;;;20.10;99924.00;;;;2074543;28;20242;-53
2022/12/12 00:42:05;;;;;;;19.02;15.30;;;;;20.20;99927.00;;;;2073273;28;20453;-52
2022/12/12 00:43:05;;;;;;;14.33;12.93;;;;;20.10;99928.00;;;;2070023;28;20690;-54
2022/12/12 00:44:05;;;;;;;15.87;14.17;;;;;20.00;99928.00;;;;2077104;28;20653;-54
2022/12/12 00:45:06;;;;;;;16.33;14.50;;;;;20.10;99930.00;;;;2071418;28;20289;-54
2022/12/12 00:46:07;;;;;;;16.27;14.57;;;;;20.10;99932.00;;;;2074862;28;20210;-55
2022/12/12 00:47:07;;;;;;;16.73;14.93;;;;;20.00;99929.00;;;;2077052;28;20455;-53
2022/12/12 00:48:08;;;;;;;17.50;14.80;;;;;20.00;99926.00;;;;2073224;28;20236;-54
2022/12/12 00:49:08;;;;;;;17.50;15.20;;;;;20.10;99928.00;;;;2075363;28;20214;-52
2022/12/12 00:50:09;;;;;;;16.20;14.50;;;;;20.10;99930.00;;;;2078510;28;20225;-52
2022/12/12 00:51:12;;;;;;;15.50;13.87;;;;;20.10;99934.00;;;;2073706;28;20206;-53
2022/12/12 00:52:12;;;;;;;15.77;14.07;;;;;20.10;99921.00;;;;2070377;28;20237;-54
2022/12/12 00:53:13;;;;;;;15.50;13.90;;;;;20.10;99927.00;;;;2069680;28;20249;-54
2022/12/12 00:54:13;;;;;;;18.20;15.77;;;;;20.10;99931.00;;;;2070401;28;20226;-55
2022/12/12 00:55:13;;;;;;;15.60;14.00;;;;;20.00;99929.00;;;;2077429;28;20214;-54
2022/12/12 00:56:15;;;;;;;16.67;14.37;;;;;20.00;99928.00;;;;2069535;28;20217;-52
2022/12/12 00:57:15;;;;;;;15.63;14.02;;;;;20.00;99930.00;;;;2079533;28;20216;-54
2022/12/12 00:58:15;;;;;;;14.83;13.33;;;;;20.00;99938.00;;;;2079998;28;20210;-54
2022/12/12 00:59:16;;;;;;;16.27;14.23;;;;;20.00;99934.00;;;;2076800;28;20233;-52
2022/12/12 01:00:16;;;;;;;15.30;13.70;;;;;20.00;99932.00;;;;2074065;28;20237;-53
2022/12/12 01:01:27;;;;;;;15.97;14.23;;;;;20.00;99929.00;;;;2072302;28;20275;-54
2022/12/12 01:02:27;;;;;;;15.57;13.07;;;;;20.00;99930.00;;;;2063384;28;20237;-54
2022/12/12 01:03:28;;;;;;;15.00;13.37;;;;;20.00;99930.00;;;;2068883;28;20205;-54
2022/12/12 01:04:28;;;;;;;15.77;13.83;;;;;19.90;99938.00;;;;2072374;28;20240;-52
2022/12/12 01:05:28;;;;;;;16.70;14.83;;;;;19.90;99929.00;;;;2079345;28;20210;-53
2022/12/12 01:06:29;;;;;;;16.53;14.70;;;;;19.90;99941.00;;;;2072331;28;20221;-54
2022/12/12 01:07:29;;;;;;;15.60;13.50;;;;;19.90;99933.00;;;;2074734;28;20377;-52
2022/12/12 01:08:29;;;;;;;15.00;13.37;;;;;20.00;99939.00;;;;2080490;28;20239;-54
2022/12/12 01:09:30;;;;;;;15.53;13.60;;;;;19.90;99940.00;;;;2072852;28;20222;-54
2022/12/12 01:10:30;;;;;;;14.03;12.57;;;;;20.00;99937.00;;;;2080424;28;20348;-54
2022/12/12 01:11:30;;;;;;;14.90;13.30;;;;;19.90;99948.00;;;;2080360;28;20221;-52
2022/12/12 01:12:31;;;;;;;14.43;12.93;;;;;20.00;99943.00;;;;2076897;28;20210;-52
2022/12/12 01:13:31;;;;;;;15.40;13.67;;;;;19.90;99942.00;;;;2071565;28;20202;-53
2022/12/12 01:14:31;;;;;;;15.07;13.50;;;;;19.90;99946.00;;;;2072805;28;20615;-54
2022/12/12 01:15:32;;;;;;;15.23;13.63;;;;;19.90;99938.00;;;;2080390;28;20210;-54
2022/12/12 01:16:32;;;;;;;15.70;14.10;;;;;19.90;99947.00;;;;2072669;28;20222;-54
2022/12/12 01:17:36;;;;;;;16.30;14.20;;;;;19.90;99943.00;;;;2075069;28;20580;-54
2022/12/12 01:18:37;;;;;;;14.90;13.40;;;;;19.90;99946.00;;;;2072084;28;20214;-54
2022/12/12 01:19:37;;;;;;;15.43;13.90;;;;;19.90;99943.00;;;;2071957;28;20272;-52
2022/12/12 01:20:37;;;;;;;14.57;13.03;;;;;19.90;99953.00;;;;2074690;28;20308;-54
2022/12/12 01:21:38;;;;;;;14.87;13.37;;;;;19.90;99948.00;;;;2079192;28;20312;-55
2022/12/12 01:22:38;;;;;;;15.07;13.47;;;;;19.80;99952.00;;;;2077931;28;20221;-53
2022/12/12 01:23:38;;;;;;;15.50;13.90;;;;;19.80;99946.00;;;;2075057;28;20225;-52
2022/12/12 01:24:39;;;;;;;14.33;12.93;;;;;19.90;99944.00;;;;2073278;28;20248;-55
2022/12/12 01:25:39;;;;;;;14.40;13.00;;;;;19.80;99948.00;;;;2078545;28;20371;-53
2022/12/12 01:26:39;;;;;;;16.13;14.43;;;;;19.80;99952.00;;;;2075530;28;20259;-52
2022/12/12 01:27:40;;;;;;;14.90;13.40;;;;;19.80;99957.00;;;;2073929;28;20210;-54
2022/12/12 01:28:41;;;;;;;13.50;12.10;;;;;19.80;99952.00;;;;2071813;28;20221;-54
2022/12/12 01:29:42;;;;;;;15.38;13.80;;;;;19.80;99955.00;;;;2075882;28;20610;-52
2022/12/12 01:30:42;;;;;;;14.33;12.83;;;;;19.80;99948.00;;;;2075609;28;20293;-53
2022/12/12 01:31:42;;;;;;;15.07;13.50;;;;;19.80;99967.00;;;;2073898;28;21023;-54
2022/12/12 01:32:43;;;;;;;15.13;13.23;;;;;19.80;99960.00;;;;2075332;28;20221;-54
2022/12/12 01:33:44;;;;;;;14.50;13.00;;;;;19.80;99958.00;;;;2075681;28;20268;-54
2022/12/12 01:34:45;;;;;;;14.30;12.82;;;;;19.90;99960.00;;;;2071760;28;20222;-55
2022/12/12 01:35:45;;;;;;;13.97;12.50;;;;;19.80;99909.00;;;;2072047;28;20211;-54
2022/12/12 01:36:45;;;;;;;14.13;12.83;;;;;19.80;99962.00;;;;2072086;28;20602;-55
2022/12/12 01:37:47;;;;;;;16.27;13.30;;;;;19.80;99965.00;;;;2078103;28;20610;-56
2022/12/12 01:38:48;;;;;;;15.23;13.60;;;;;19.80;99967.00;;;;2074766;28;20222;-54
2022/12/12 01:39:49;;;;;;;14.20;12.70;;;;;19.80;99968.00;;;;2077465;28;20233;-54
2022/12/12 01:40:50;;;;;;;14.07;12.43;;;;;19.80;99965.00;;;;2077633;28;20210;-54
2022/12/12 01:41:50;;;;;;;15.13;13.40;;;;;19.80;99968.00;;;;2071016;28;20214;-55
2022/12/12 01:42:50;;;;;;;14.87;13.33;;;;;19.70;99966.00;;;;2071114;28;20457;-54
2022/12/12 01:43:51;;;;;;;14.80;13.00;;;;;19.80;99968.00;;;;2070933;28;20210;-53
2022/12/12 01:44:51;;;;;;;13.43;11.80;;;;;19.80;99965.00;;;;2071272;28;20217;-55
2022/12/12 01:45:58;;;;;;;14.90;12.53;;;;;19.80;99961.00;;;;2070072;28;20284;-54
2022/12/12 01:46:58;;;;;;;17.48;14.50;;;;;19.80;99968.00;;;;2064788;28;20424;-52
2022/12/12 01:47:59;;;;;;;14.37;12.87;;;;;19.80;99968.00;;;;2077726;28;20614;-52
2022/12/12 01:49:19;;;;;;;14.57;13.03;;;;;19.80;99968.00;;;;2080131;28;20672;-54
2022/12/12 01:50:19;;;;;;;14.07;12.68;;;;;19.70;99965.00;;;;2079051;28;20232;-52
2022/12/12 01:51:21;;;;;;;13.87;12.47;;;;;19.70;99958.00;;;;2079355;28;20221;-54
2022/12/12 01:52:25;;;;;;;13.90;12.50;;;;;19.70;99960.00;;;;2075176;28;20217;-53
2022/12/12 01:53:25;;;;;;;14.88;13.27;;;;;19.80;99952.00;;;;2070752;28;20219;-54
2022/12/12 01:54:28;;;;;;;13.63;12.23;;;;;19.70;99960.00;;;;2073841;28;20217;-54
2022/12/12 01:55:29;;;;;;;14.68;13.18;;;;;19.70;99964.00;;;;2061130;28;21099;-54
2022/12/12 01:56:29;;;;;;;13.20;12.00;;;;;19.70;99961.00;;;;2065417;28;20226;-53
2022/12/12 01:57:33;;;;;;;13.80;12.23;;;;;19.70;99963.00;;;;2062808;28;20570;-52
2022/12/12 01:58:33;;;;;;;14.52;13.02;;;;;19.70;99935.00;;;;2059311;28;20211;-54
2022/12/12 01:59:33;;;;;;;13.70;12.30;;;;;19.70;99970.00;;;;2062623;28;20230;-53
2022/12/12 02:00:34;;;;;;;12.47;11.23;;;;;19.80;99968.00;;;;2070692;28;20220;-53
2022/12/12 02:01:34;;;;;;;13.53;12.13;;;;;19.70;99964.00;;;;2074601;28;20215;-54
2022/12/12 02:02:34;;;;;;;13.97;12.47;;;;;19.70;99959.00;;;;2079006;28;20221;-54
2022/12/12 02:03:35;;;;;;;14.17;12.67;;;;;19.60;99968.00;;;;2074947;28;20600;-54
2022/12/12 02:04:35;;;;;;;14.80;12.57;;;;;19.70;99964.00;;;;2072313;28;20260;-52
2022/12/12 02:05:38;;;;;;;13.77;12.30;;;;;19.60;99959.00;;;;2075086;28;20217;-54
2022/12/12 02:06:39;;;;;;;13.73;12.32;;;;;19.60;99965.00;;;;2063451;28;20304;-52
2022/12/12 02:07:39;;;;;;;13.90;12.40;;;;;19.60;99962.00;;;;2061837;28;20238;-54
2022/12/12 02:08:39;;;;;;;13.80;12.40;;;;;19.60;99971.00;;;;2070375;28;20305;-54
2022/12/12 02:09:40;;;;;;;13.47;12.07;;;;;19.60;99952.00;;;;2070450;28;20210;-52
2022/12/12 02:10:40;;;;;;;13.07;11.67;;;;;19.70;99964.00;;;;2063116;28;20324;-53
2022/12/12 02:11:48;;;;;;;13.73;12.33;;;;;19.60;99960.00;;;;2062415;28;20214;-55
2022/12/12 02:12:48;;;;;;;12.57;11.27;;;;;19.70;99968.00;;;;2072600;28;20210;-53
2022/12/12 02:13:49;;;;;;;13.83;12.33;;;;;19.70;99963.00;;;;2070158;28;20230;-53
2022/12/12 02:14:50;;;;;;;14.20;11.80;;;;;19.60;99963.00;;;;2074805;28;20214;-54
2022/12/12 02:15:57;;;;;;;14.10;11.65;;;;;19.60;99961.00;;;;2078751;28;20217;-55
2022/12/12 02:17:15;;;;;;;13.07;11.75;;;;;19.60;99956.00;;;;2075462;28;20203;-54
2022/12/12 02:18:50;;;;;;;14.02;12.55;;;;;19.60;99953.00;;;;2071014;28;20691;-54
2022/12/12 02:20:09;;;;;;;14.35;12.63;;;;;19.60;99961.00;;;;2062313;28;20754;-53
2022/12/12 02:21:32;;;;;;;13.77;12.48;;;;;19.60;99954.00;;;;2067258;28;20218;-53
2022/12/12 02:22:51;;;;;;;13.98;12.50;;;;;19.60;99957.00;;;;2070570;28;20809;-54
2022/12/12 02:24:21;;;;;;;13.90;12.23;;;;;19.60;99966.00;;;;2070300;28;20229;-57
2022/12/12 02:25:30;;;;;;;13.73;12.25;;;;;19.60;99961.00;;;;2062288;28;20633;-55
2022/12/12 02:27:00;;;;;;;13.80;12.05;;;;;19.50;99966.00;;;;2064738;28;20215;-53
2022/12/12 02:28:08;;;;;;;13.15;11.75;;;;;19.60;99966.00;;;;2071670;28;20205;-53
2022/12/12 02:29:18;;;;;;;13.07;11.80;;;;;19.50;99963.00;;;;2062600;28;20431;-54
2022/12/12 02:30:22;;;;;;;13.05;11.68;;;;;19.50;99959.00;;;;2063662;28;20721;-53
2022/12/12 02:31:42;;;;;;;14.00;12.55;;;;;19.60;99968.00;;;;2069621;28;20222;-57
2022/12/12 02:32:52;;;;;;;13.02;11.63;;;;;19.60;99961.00;;;;2055835;28;20223;-54
2022/12/12 02:34:11;;;;;;;16.15;11.60;;;;;19.60;99976.00;;;;2065055;28;20218;-56
2022/12/12 02:35:33;;;;;;;13.60;12.10;;;;;19.50;99963.00;;;;2064878;28;20211;-52
2022/12/12 02:36:39;;;;;;;14.48;12.98;;;;;19.50;99962.00;;;;2074996;28;20221;-54
2022/12/12 02:37:59;;;;;;;13.85;12.30;;;;;19.50;99960.00;;;;2079709;28;20945;-52
2022/12/12 02:39:08;;;;;;;12.48;11.18;;;;;19.50;99968.00;;;;2073969;28;20214;-53
2022/12/12 02:40:17;;;;;;;13.90;12.15;;;;;19.50;99957.00;;;;2061140;28;20231;-53
2022/12/12 02:41:43;;;;;;;13.40;12.07;;;;;19.50;99962.00;;;;2071336;28;20222;-54
2022/12/12 02:43:26;;;;;;;12.73;11.40;;;;;19.50;99959.00;;;;2062589;28;20245;-54
2022/12/12 02:44:29;;;;;;;13.30;11.90;;;;;19.50;99960.00;;;;2044772;29;20271;-54
2022/12/12 02:45:38;;;;;;;12.90;11.52;;;;;19.50;99960.00;;;;2051664;28;20244;-52
2022/12/12 02:46:57;;;;;;;14.32;12.75;;;;;19.50;99961.00;;;;2078699;28;20227;-53
2022/12/12 02:48:37;;;;;;;13.68;12.07;;;;;19.50;99955.00;;;;2072022;28;20210;-55
2022/12/12 02:49:40;;;;;;;14.13;12.63;;;;;19.50;99961.00;;;;2075712;28;20267;-54
2022/12/12 02:50:41;;;;;;;14.10;12.60;;;;;19.50;99965.00;;;;2049730;28;20220;-53
2022/12/12 02:51:42;;;;;;;13.83;12.03;;;;;19.50;99959.00;;;;2038037;29;20263;-54
2022/12/12 02:52:42;;;;;;;13.80;10.97;;;;;19.50;99964.00;;;;2049213;28;20447;-52
2022/12/12 02:53:43;;;;;;;12.40;11.10;;;;;19.50;99959.00;;;;2046149;29;20322;-53
2022/12/12 02:54:43;;;;;;;13.70;12.30;;;;;19.50;99968.00;;;;2061864;28;20231;-54
2022/12/12 02:55:43;;;;;;;12.50;11.20;;;;;19.50;99964.00;;;;2075288;28;20272;-54
2022/12/12 02:56:44;;;;;;;12.33;11.13;;;;;19.50;99966.00;;;;2079174;28;20612;-54
2022/12/12 02:57:44;;;;;;;13.07;11.67;;;;;19.50;99963.00;;;;2077654;28;20639;-55
2022/12/12 02:58:44;;;;;;;12.90;11.60;;;;;19.50;99953.00;;;;2070429;28;20349;-52
2022/12/12 02:59:49;;;;;;;13.57;11.80;;;;;19.50;99966.00;;;;2078546;28;20237;-54
2022/12/12 03:01:17;;;;;;;12.70;11.50;;;;;19.50;99969.00;;;;2065879;28;20226;-53
2022/12/12 03:02:52;;;;;;;12.70;10.98;;;;;19.40;99969.00;;;;2058011;28;20227;-53
2022/12/12 03:08:40;;;;;;;13.57;11.90;;;;;19.40;99969.00;;;;2063573;28;20695;-59
2022/12/12 03:09:55;;;;;;;13.02;11.73;;;;;19.40;99968.00;;;;2070813;28;20218;-54
2022/12/12 03:11:12;;;;;;;12.75;11.45;;;;;19.40;99956.00;;;;2071124;28;20209;-52
2022/12/12 03:12:40;;;;;;;15.18;12.27;;;;;19.40;99965.00;;;;2066729;28;20624;-54
2022/12/12 03:13:51;;;;;;;11.82;10.65;;;;;19.40;99964.00;;;;2075999;28;20248;-53
2022/12/12 03:15:14;;;;;;;12.15;10.85;;;;;19.40;99967.00;;;;2078600;28;20229;-55
2022/12/12 03:16:37;;;;;;;12.45;11.13;;;;;19.40;99971.00;;;;2072568;28;20724;-54
2022/12/12 03:17:41;;;;;;;15.63;12.43;;;;;19.50;99965.00;;;;2070500;28;20209;-52
2022/12/12 03:19:02;;;;;;;12.10;10.90;;;;;19.40;99976.00;;;;2069816;28;20244;-53
2022/12/12 03:20:03;;;;;;;11.55;10.45;;;;;19.40;99972.00;;;;2074657;28;20225;-54
2022/12/12 03:21:04;;;;;;;11.10;10.00;;;;;19.40;99948.00;;;;2068938;28;20218;-54
2022/12/12 03:22:18;;;;;;;14.02;12.00;;;;;19.40;99966.00;;;;2070243;28;20213;-54
2022/12/12 03:23:23;;;;;;;12.27;10.70;;;;;19.40;99972.00;;;;2076849;28;20243;-52
2022/12/12 03:25:03;;;;;;;12.10;10.88;;;;;19.40;99972.00;;;;2060957;28;20298;-54
2022/12/12 03:26:12;;;;;;;13.00;11.50;;;;;19.40;99967.00;;;;2046708;28;20266;-54
2022/12/12 03:27:23;;;;;;;13.48;11.15;;;;;19.40;99971.00;;;;2062235;28;20259;-55
2022/12/12 03:28:34;;;;;;;12.30;11.10;;;;;19.40;99971.00;;;;2062020;28;20277;-54
2022/12/12 03:29:43;;;;;;;13.85;11.25;;;;;19.30;99956.00;;;;2061990;28;20206;-54
2022/12/12 03:30:45;;;;;;;12.80;10.88;;;;;19.30;99968.00;;;;2075763;28;20875;-54
2022/12/12 03:31:47;;;;;;;12.52;11.23;;;;;19.30;99955.00;;;;2058450;28;20223;-54
2022/12/12 03:32:56;;;;;;;13.30;11.68;;;;;19.30;99969.00;;;;2053725;28;20656;-54
2022/12/12 03:34:17;;;;;;;12.80;11.30;;;;;19.30;99968.00;;;;2058759;28;20224;-54
2022/12/12 03:35:32;;;;;;;13.18;11.57;;;;;19.30;99962.00;;;;2064260;28;20218;-53
2022/12/12 03:36:37;;;;;;;12.95;11.52;;;;;19.30;99972.00;;;;2064428;28;20744;-54
2022/12/12 03:37:40;;;;;;;12.95;11.30;;;;;19.30;99963.00;;;;2073114;28;20229;-54
2022/12/12 03:38:43;;;;;;;11.70;10.50;;;;;19.30;99961.00;;;;2058089;28;20270;-54
2022/12/12 03:39:47;;;;;;;13.73;12.10;;;;;19.30;99960.00;;;;2059035;28;20218;-55
2022/12/12 03:40:52;;;;;;;12.60;11.13;;;;;19.30;99972.00;;;;2058802;28;20211;-52
2022/12/12 03:41:55;;;;;;;13.05;11.52;;;;;19.20;99970.00;;;;2051685;28;20241;-54
2022/12/12 03:43:10;;;;;;;13.68;12.27;;;;;19.30;99968.00;;;;2059352;28;20218;-54
2022/12/12 03:44:12;;;;;;;11.00;9.88;;;;;19.30;99964.00;;;;2066128;28;20210;-54
2022/12/12 03:45:17;;;;;;;12.30;11.00;;;;;19.30;99958.00;;;;2077928;28;20214;-54
2022/12/12 03:46:23;;;;;;;12.23;10.93;;;;;19.30;99949.00;;;;2075468;28;20216;-53
2022/12/12 03:47:32;;;;;;;15.85;11.50;;;;;19.30;99963.00;;;;2075093;28;20214;-53
2022/12/12 03:48:35;;;;;;;12.70;11.40;;;;;19.30;99979.00;;;;2070067;28;20618;-54
2022/12/12 03:49:40;;;;;;;12.02;10.68;;;;;19.20;99897.00;;;;2072474;28;20263;-56
2022/12/12 03:50:44;;;;;;;12.40;11.13;;;;;19.30;99968.00;;;;2062840;28;20214;-54
2022/12/12 03:51:47;;;;;;;11.93;10.82;;;;;19.30;99975.00;;;;2071667;28;20264;-54
2022/12/12 03:52:55;;;;;;;12.20;11.00;;;;;19.30;99972.00;;;;2074465;28;20221;-53
2022/12/12 03:54:22;;;;;;;12.77;11.35;;;;;19.30;99969.00;;;;2069796;28;20325;-54
2022/12/12 03:55:29;;;;;;;13.52;12.23;;;;;19.30;99971.00;;;;2064318;28;20264;-52
2022/12/12 03:56:37;;;;;;;12.57;11.20;;;;;19.30;99977.00;;;;2062862;28;20284;-52
2022/12/12 03:57:58;;;;;;;12.18;10.77;;;;;19.30;99970.00;;;;2070149;28;20807;-52
2022/12/12 03:59:08;;;;;;;12.77;11.50;;;;;19.30;99977.00;;;;2070691;28;20238;-53
2022/12/12 04:00:12;;;;;;;12.52;11.30;;;;;19.30;99977.00;;;;2073138;28;20249;-54
2022/12/12 04:01:12;;;;;;;13.20;11.10;;;;;19.30;99975.00;;;;2072243;28;20694;-54
2022/12/12 04:02:22;;;;;;;11.37;10.20;;;;;19.30;99971.00;;;;2069783;28;20218;-55
2022/12/12 04:03:30;;;;;;;12.00;10.60;;;;;19.30;99979.00;;;;2064332;28;20277;-53
2022/12/12 04:04:38;;;;;;;12.00;10.73;;;;;19.20;99967.00;;;;2063424;28;20218;-54
2022/12/12 04:06:25;;;;;;;12.40;11.10;;;;;19.20;99979.00;;;;2047057;28;20211;-55
2022/12/12 04:07:07;;;;;;;12.15;10.95;;;;;19.20;99976.00;;;;2058115;28;20671;-52
2022/12/12 04:08:10;;;;;;;13.60;12.20;;;;;19.20;99981.00;;;;2063828;28;20557;-57
2022/12/12 04:13:28;;;;;;;12.38;11.07;;;;;19.20;99988.00;;;;2067308;28;20214;-54
2022/12/12 04:15:16;;;;;;;12.23;11.02;;;;;19.20;99976.00;;;;2061106;28;20648;-54
2022/12/12 04:16:24;;;;;;;12.38;10.52;;;;;19.20;99979.00;;;;2059287;28;20900;-52
2022/12/12 04:17:31;;;;;;;11.35;10.25;;;;;19.20;99978.00;;;;2058702;28;20250;-53
2022/12/12 04:18:47;;;;;;;11.27;10.00;;;;;19.20;99973.00;;;;2063492;28;20298;-52
2022/12/12 04:23:15;;;;;;;12.18;10.88;;;;;19.20;99983.00;;;;2064503;28;20211;-53
2022/12/12 04:24:16;;;;;;;12.93;10.88;;;;;19.20;99981.00;;;;2077890;28;20220;-54
2022/12/12 04:25:25;;;;;;;11.63;10.43;;;;;19.10;99971.00;;;;2074478;28;20302;-55
2022/12/12 04:26:38;;;;;;;11.50;10.40;;;;;19.20;99984.00;;;;2069898;28;20305;-54
2022/12/12 04:27:41;;;;;;;11.25;10.02;;;;;19.10;99979.00;;;;2069347;28;20224;-54
2022/12/12 04:28:45;;;;;;;11.65;10.38;;;;;19.20;99992.00;;;;2068202;28;20222;-55
2022/12/12 04:29:49;;;;;;;11.23;10.10;;;;;19.20;99985.00;;;;2073537;28;20217;-54
2022/12/12 04:30:50;;;;;;;11.45;10.35;;;;;19.20;99988.00;;;;2066925;28;20577;-53
2022/12/12 04:32:19;;;;;;;12.87;11.60;;;;;19.20;99987.00;;;;2079114;28;20215;-55
2022/12/12 04:33:19;;;;;;;11.60;10.40;;;;;19.10;99968.00;;;;2065739;28;20218;-54
2022/12/12 04:34:25;;;;;;;11.37;10.20;;;;;19.10;99990.00;;;;2071518;28;20218;-52
2022/12/12 04:35:29;;;;;;;10.82;9.73;;;;;19.20;99981.00;;;;2075142;28;20259;-53
2022/12/12 04:36:30;;;;;;;11.85;10.55;;;;;19.20;99983.00;;;;2074943;28;20753;-53
2022/12/12 04:37:35;;;;;;;11.50;9.90;;;;;19.20;99985.00;;;;2071629;28;20354;-54
2022/12/12 04:38:35;;;;;;;12.10;10.82;;;;;19.10;99991.00;;;;2070728;28;20278;-54
2022/12/12 04:39:35;;;;;;;14.47;11.40;;;;;19.10;100000.00;;;;2050718;28;20631;-55
2022/12/12 04:40:41;;;;;;;12.37;11.07;;;;;19.10;99980.00;;;;2064043;28;20632;-54
2022/12/12 04:41:41;;;;;;;11.35;9.75;;;;;19.10;99983.00;;;;2063539;28;20273;-53
2022/12/12 04:42:44;;;;;;;12.77;11.50;;;;;19.10;99996.00;;;;2055417;28;20225;-54
2022/12/12 04:43:46;;;;;;;12.63;10.48;;;;;19.10;99978.00;;;;2069841;28;20683;-55
2022/12/12 04:44:47;;;;;;;11.07;9.98;;;;;19.10;99974.00;;;;2071880;28;20644;-54
2022/12/12 04:45:50;;;;;;;11.38;10.18;;;;;19.10;99976.00;;;;2077067;28;20653;-54
2022/12/12 04:46:51;;;;;;;11.98;10.80;;;;;19.10;99992.00;;;;2055653;28;20222;-52
2022/12/12 04:47:51;;;;;;;11.90;10.70;;;;;19.10;99991.00;;;;2056121;28;20219;-54
2022/12/12 04:48:57;;;;;;;12.70;11.27;;;;;19.10;99982.00;;;;2071425;28;20209;-54
2022/12/12 04:49:57;;;;;;;12.35;11.02;;;;;19.10;99991.00;;;;2061038;28;20219;-53
2022/12/12 04:50:58;;;;;;;11.37;10.17;;;;;19.10;99998.00;;;;2055600;28;20220;-54
2022/12/12 04:52:01;;;;;;;12.00;10.60;;;;;19.10;99998.00;;;;2071306;28;20861;-54
2022/12/12 04:53:03;;;;;;;11.10;9.70;;;;;19.10;100002.00;;;;2064576;28;20219;-53
2022/12/12 04:54:09;;;;;;;11.13;9.95;;;;;19.10;100003.00;;;;2063431;28;22156;-55
2022/12/12 04:55:12;;;;;;;11.93;10.63;;;;;19.10;99996.00;;;;2071100;28;20614;-54
2022/12/12 04:56:12;;;;;;;12.63;11.07;;;;;19.10;100006.00;;;;2066072;28;20227;-55
2022/12/12 04:57:17;;;;;;;11.10;9.50;;;;;19.10;100000.00;;;;2071495;28;20233;-55
2022/12/12 04:58:18;;;;;;;11.65;10.45;;;;;19.10;99996.00;;;;2071085;28;20226;-53
2022/12/12 04:59:18;;;;;;;12.30;10.57;;;;;19.10;99982.00;;;;2057720;28;20837;-52
2022/12/12 05:00:19;;;;;;;11.37;10.17;;;;;19.10;99987.00;;;;2066394;28;20790;-53
2022/12/12 05:01:34;;;;;;;11.23;10.13;;;;;19.00;99915.00;;;;2063706;28;20214;-52
2022/12/12 05:02:48;;;;;;;11.20;10.00;;;;;19.00;100000.00;;;;2067033;28;20450;-53
2022/12/12 05:03:52;;;;;;;11.05;9.95;;;;;19.10;100006.00;;;;2074332;28;20613;-53
2022/12/12 05:05:02;;;;;;;10.63;9.52;;;;;19.10;99997.00;;;;2056329;28;20652;-53
2022/12/12 05:06:06;;;;;;;12.55;10.18;;;;;19.00;99991.00;;;;2056786;28;20216;-54
2022/12/12 05:07:13;;;;;;;11.80;10.40;;;;;19.10;99994.00;;;;2068370;28;20210;-54
2022/12/12 05:08:20;;;;;;;11.23;10.00;;;;;19.10;100004.00;;;;2063414;28;20223;-54
2022/12/12 05:09:20;;;;;;;11.93;10.15;;;;;19.00;99996.00;;;;2061879;28;20216;-53
2022/12/12 05:10:21;;;;;;;12.47;11.27;;;;;19.00;99995.00;;;;2067565;28;20582;-53
2022/12/12 05:11:21;;;;;;;10.60;9.43;;;;;19.00;100004.00;;;;2066506;28;20645;-54
2022/12/12 05:12:21;;;;;;;11.50;10.30;;;;;19.00;100002.00;;;;2065215;28;20311;-54
2022/12/12 05:13:23;;;;;;;12.00;10.40;;;;;19.00;100001.00;;;;2079744;28;20261;-54
2022/12/12 05:14:23;;;;;;;11.30;10.02;;;;;19.00;100001.00;;;;2075042;28;20287;-54
2022/12/12 05:15:24;;;;;;;11.83;10.40;;;;;19.00;100000.00;;;;2063108;28;20277;-54
2022/12/12 05:16:32;;;;;;;10.50;9.27;;;;;19.10;100005.00;;;;2069017;28;20226;-54
2022/12/12 05:17:35;;;;;;;11.38;10.18;;;;;19.00;100005.00;;;;2068186;28;20238;-53
2022/12/12 05:18:35;;;;;;;11.18;10.07;;;;;19.00;100000.00;;;;2057845;28;20211;-54
2022/12/12 05:19:35;;;;;;;11.10;9.90;;;;;19.00;100010.00;;;;2068661;28;20221;-54
2022/12/12 05:20:36;;;;;;;12.20;10.97;;;;;19.00;100007.00;;;;2072045;28;20626;-55
2022/12/12 05:21:36;;;;;;;11.50;10.30;;;;;19.00;99999.00;;;;2079853;28;20589;-54
2022/12/12 05:22:37;;;;;;;11.30;10.10;;;;;19.00;100006.00;;;;2077935;28;20634;-52
2022/12/12 05:23:37;;;;;;;11.63;10.13;;;;;19.00;100008.00;;;;2074900;28;20213;-54
2022/12/12 05:24:37;;;;;;;10.67;9.50;;;;;19.00;100009.00;;;;2078593;28;22944;-53
2022/12/12 05:25:38;;;;;;;10.93;9.83;;;;;19.00;100003.00;;;;2079999;28;20221;-54
2022/12/12 05:26:38;;;;;;;11.33;9.83;;;;;19.00;100004.00;;;;2075710;28;20606;-54
2022/12/12 05:27:38;;;;;;;11.33;10.13;;;;;19.00;100008.00;;;;2072026;28;20221;-55
2022/12/12 05:28:39;;;;;;;11.03;10.03;;;;;19.00;100013.00;;;;2072039;28;20218;-54
2022/12/12 05:29:39;;;;;;;10.77;9.77;;;;;19.00;100011.00;;;;2071534;28;20250;-54